Time;durP1;ratioP1;P1;durP2;ratioP2;P2;SDS_P1;SDS_P2;PMS_P1;PMS_P2;Temp;Humidity;BMP_temperature;BMP_pressure;BME280_temperature;BME280_humidity;BME280_pressure;Samples;Min_cycle;Max_cycle;Signal;HPM_P1;HPM_P2
2024/03/22 00:00:22;;;;;;;220.80;93.23;;;7.30;99.90;10.00;97223.00;;;;4976662;28;20222;-67
2024/03/22 00:03:10;;;;;;;237.20;100.70;;;7.40;99.90;10.20;97229.00;;;;4981515;28;20202;-68
2024/03/22 00:05:57;;;;;;;220.17;91.07;;;7.50;99.90;9.90;97225.00;;;;4978707;28;20679;-67
2024/03/22 00:08:44;;;;;;;228.17;98.93;;;7.60;99.90;10.10;97225.00;;;;4982325;28;20591;-67
2024/03/22 00:11:32;;;;;;;223.23;92.30;;;7.70;99.90;10.40;97230.00;;;;4977072;28;20219;-68
2024/03/22 00:14:20;;;;;;;231.53;96.70;;;7.70;99.90;10.10;97228.00;;;;4989881;28;20206;-68
2024/03/22 00:17:08;;;;;;;243.83;102.30;;;7.70;99.90;10.20;97221.00;;;;4975267;28;20245;-66
2024/03/22 00:19:56;;;;;;;234.77;96.70;;;7.80;99.90;10.00;97226.00;;;;4976747;28;20218;-66
2024/03/22 00:22:43;;;;;;;235.93;97.67;;;7.80;99.90;10.40;97227.00;;;;4992486;28;20293;-66
2024/03/22 00:25:32;;;;;;;231.63;97.30;;;8.00;99.90;10.00;97225.00;;;;4990716;28;20209;-67
2024/03/22 00:28:19;;;;;;;224.97;94.07;;;8.00;99.90;10.60;97232.00;;;;4976418;28;20232;-66
2024/03/22 00:31:07;;;;;;;248.27;105.00;;;8.00;99.90;10.90;97232.00;;;;4987548;28;20237;-68
2024/03/22 00:33:55;;;;;;;240.57;102.30;;;8.10;99.90;10.60;97231.00;;;;4990072;28;20206;-67
2024/03/22 00:36:43;;;;;;;233.50;98.43;;;8.00;99.90;10.60;97225.00;;;;4975025;28;20213;-68
2024/03/22 00:39:30;;;;;;;233.77;97.73;;;8.10;99.90;10.40;97219.00;;;;4972151;28;20206;-67
2024/03/22 00:42:17;;;;;;;251.60;107.63;;;8.10;99.90;10.60;97230.00;;;;4986725;28;20210;-68
2024/03/22 00:45:05;;;;;;;246.50;105.27;;;8.10;99.90;10.00;97222.00;;;;4976201;28;20248;-69
2024/03/22 00:47:53;;;;;;;238.80;100.70;;;7.90;99.90;10.40;97220.00;;;;4981593;28;20210;-68
2024/03/22 00:50:42;;;;;;;238.90;101.43;;;7.90;99.90;10.60;97231.00;;;;4986010;28;20236;-68
2024/03/22 00:53:31;;;;;;;237.57;98.20;;;7.90;99.90;10.20;97233.00;;;;4989903;28;20676;-68
2024/03/22 00:56:17;;;;;;;240.83;99.90;;;7.90;99.90;9.90;97243.00;;;;4974180;28;20230;-67
2024/03/22 00:59:06;;;;;;;245.10;104.37;;;7.80;99.90;9.50;97230.00;;;;4979284;28;20210;-67
2024/03/22 01:01:53;;;;;;;233.30;98.00;;;7.70;99.90;9.70;97228.00;;;;4977469;28;20233;-68
2024/03/22 01:04:41;;;;;;;232.27;95.83;;;7.70;99.90;9.80;97240.00;;;;4989771;28;20281;-68
2024/03/22 01:07:30;;;;;;;232.17;97.70;;;7.70;99.90;10.30;97238.00;;;;4984942;28;20634;-66
2024/03/22 01:10:18;;;;;;;242.87;100.93;;;8.80;99.90;10.50;97229.00;;;;4977342;28;20309;-68
2024/03/22 01:13:06;;;;;;;243.43;104.70;;;7.90;99.90;10.60;97226.00;;;;4985646;28;20206;-67
2024/03/22 01:15:53;;;;;;;237.57;99.50;;;8.00;99.90;10.60;97234.00;;;;4975469;28;20726;-68
2024/03/22 01:18:41;;;;;;;243.73;101.70;;;8.10;99.90;9.90;97216.00;;;;4989801;28;20606;-66
2024/03/22 01:21:28;;;;;;;229.37;95.13;;;8.00;99.90;10.10;97231.00;;;;4984961;28;20230;-66
2024/03/22 01:24:17;;;;;;;239.20;101.17;;;8.00;99.90;9.60;97220.00;;;;4989744;28;20217;-68
2024/03/22 01:27:05;;;;;;;245.60;111.03;;;7.90;99.90;10.40;97229.00;;;;4972344;28;20214;-66
2024/03/22 01:29:52;;;;;;;237.57;100.43;;;8.00;99.90;10.90;97227.00;;;;4980443;28;20245;-67
2024/03/22 01:32:39;;;;;;;241.73;100.23;;;8.00;99.90;10.90;97228.00;;;;4975770;28;20214;-68
2024/03/22 01:35:27;;;;;;;247.13;105.90;;;8.10;99.90;10.90;97232.00;;;;4974479;28;20225;-67
2024/03/22 01:38:14;;;;;;;248.10;104.07;;;8.20;99.90;10.50;97236.00;;;;4978454;28;20268;-67
2024/03/22 01:41:03;;;;;;;234.63;101.10;;;8.10;99.90;10.70;97227.00;;;;4978942;28;20245;-67
2024/03/22 01:43:50;;;;;;;247.30;103.57;;;8.20;99.90;10.80;97232.00;;;;4975744;28;20210;-68
2024/03/22 01:46:38;;;;;;;247.03;107.07;;;8.20;99.90;10.70;97222.00;;;;4987439;28;20199;-68
2024/03/22 01:49:25;;;;;;;234.23;96.57;;;8.20;99.90;10.50;97223.00;;;;4976295;28;20273;-67
2024/03/22 01:52:13;;;;;;;254.37;108.37;;;8.20;99.90;10.90;97220.00;;;;4987171;28;20270;-66
2024/03/22 01:55:00;;;;;;;242.50;100.87;;;8.30;99.90;10.70;97220.00;;;;4975189;28;20230;-69
2024/03/22 01:57:50;;;;;;;244.13;101.37;;;8.20;99.90;10.60;97215.00;;;;4982024;28;20698;-68
2024/03/22 02:00:38;;;;;;;238.53;99.73;;;8.30;99.90;9.90;97214.00;;;;4976125;28;20934;-67
2024/03/22 02:03:25;;;;;;;239.87;104.07;;;8.10;99.90;10.20;97216.00;;;;4991483;28;20593;-66
2024/03/22 02:06:14;;;;;;;262.90;109.83;;;8.10;99.90;10.60;97206.00;;;;4977593;28;20737;-69
2024/03/22 02:09:01;;;;;;;243.40;103.20;;;8.10;99.90;9.70;97213.00;;;;4976621;28;20282;-67
2024/03/22 02:11:49;;;;;;;238.57;99.33;;;8.00;99.90;9.40;97214.00;;;;4980711;28;20226;-68
2024/03/22 02:14:37;;;;;;;236.60;98.07;;;7.80;99.90;9.60;97210.00;;;;4989616;28;20210;-69
2024/03/22 02:17:25;;;;;;;239.40;101.60;;;7.90;99.90;10.10;97223.00;;;;4989543;28;20233;-68
2024/03/22 02:20:12;;;;;;;240.57;100.83;;;7.90;99.90;9.90;97206.00;;;;4982840;28;20230;-68
2024/03/22 02:23:00;;;;;;;238.80;97.93;;;7.90;99.90;10.10;97205.00;;;;4979445;28;20202;-67
2024/03/22 02:25:48;;;;;;;237.30;97.93;;;7.90;99.90;10.10;97214.00;;;;4983424;28;20252;-67
2024/03/22 02:28:37;;;;;;;229.63;96.33;;;7.90;99.90;9.80;97209.00;;;;4979048;28;20207;-66
2024/03/22 02:31:25;;;;;;;232.53;97.03;;;7.80;99.90;10.10;97209.00;;;;4980435;28;20280;-68
2024/03/22 02:34:13;;;;;;;246.53;104.17;;;7.80;99.90;9.50;97205.00;;;;4979888;28;20229;-70
2024/03/22 02:37:00;;;;;;;226.33;94.90;;;7.80;99.90;9.20;97199.00;;;;4989021;28;20210;-66
2024/03/22 02:39:48;;;;;;;235.73;98.27;;;7.80;99.90;10.40;97212.00;;;;4981240;28;20419;-68
2024/03/22 02:42:36;;;;;;;236.63;97.93;;;7.80;99.90;10.70;97214.00;;;;4978473;28;20601;-67
2024/03/22 02:45:24;;;;;;;232.97;96.57;;;7.90;99.90;10.90;97221.00;;;;4978178;28;20220;-67
2024/03/22 02:48:11;;;;;;;258.20;121.33;;;8.10;99.90;9.90;97212.00;;;;4979628;28;20210;-68
2024/03/22 02:50:59;;;;;;;240.57;97.60;;;8.00;99.90;9.90;97217.00;;;;4979787;28;20267;-68
2024/03/22 02:53:47;;;;;;;236.67;102.33;;;7.90;99.90;9.40;97221.00;;;;4992321;28;20206;-67
2024/03/22 02:56:34;;;;;;;231.97;97.07;;;7.80;99.90;10.00;97213.00;;;;4991718;28;20529;-67
2024/03/22 02:59:26;;;;;;;233.23;95.23;;;7.80;99.90;9.80;97206.00;;;;4992030;28;20214;-68
2024/03/22 03:02:13;;;;;;;237.77;99.57;;;7.70;99.90;10.60;97217.00;;;;4990475;28;20213;-68
2024/03/22 03:05:01;;;;;;;233.13;97.17;;;7.80;99.90;10.50;97216.00;;;;4979159;28;20203;-67
2024/03/22 03:07:48;;;;;;;231.57;95.33;;;7.90;99.90;10.30;97216.00;;;;4995420;28;20210;-67
2024/03/22 03:10:36;;;;;;;231.33;96.50;;;7.90;99.90;9.50;97198.00;;;;4991185;28;20223;-66
2024/03/22 03:13:23;;;;;;;234.63;97.37;;;7.80;99.90;9.70;97187.00;;;;4990494;28;20207;-67
2024/03/22 03:16:12;;;;;;;253.27;107.37;;;7.80;99.90;9.60;97192.00;;;;4977584;28;20711;-64
2024/03/22 03:19:00;;;;;;;234.27;99.60;;;7.80;99.90;10.00;97194.00;;;;4978573;28;20210;-68
2024/03/22 03:21:47;;;;;;;235.53;98.07;;;7.80;99.90;9.90;97200.00;;;;4989208;28;20222;-67
2024/03/22 03:24:34;;;;;;;232.77;97.73;;;7.80;99.90;9.30;97194.00;;;;4995091;28;20624;-66
2024/03/22 03:27:22;;;;;;;233.83;97.87;;;7.80;99.90;9.60;97194.00;;;;4984333;28;20206;-68
2024/03/22 03:30:10;;;;;;;241.23;100.40;;;7.70;99.90;9.40;97197.00;;;;4977147;28;20223;-66
2024/03/22 03:32:59;;;;;;;224.40;94.33;;;7.60;99.90;9.40;97198.00;;;;4978783;28;20215;-67
2024/03/22 03:35:46;;;;;;;229.73;96.90;;;7.70;99.90;8.90;97184.00;;;;4978428;28;20218;-65
2024/03/22 03:38:37;;;;;;;229.40;96.00;;;7.60;99.90;9.20;97188.00;;;;4992223;28;20210;-67
2024/03/22 03:41:24;;;;;;;225.47;93.23;;;7.50;99.90;9.60;97193.00;;;;4979571;28;20228;-67
2024/03/22 03:44:12;;;;;;;233.83;98.83;;;7.50;99.90;9.30;97188.00;;;;4975376;28;20218;-66
2024/03/22 03:47:02;;;;;;;226.93;93.83;;;7.50;99.90;9.40;97188.00;;;;4977937;28;20202;-68
2024/03/22 03:49:52;;;;;;;230.60;96.90;;;7.40;99.90;8.90;97186.00;;;;4984686;28;20207;-68
2024/03/22 03:52:39;;;;;;;224.43;93.73;;;7.40;99.90;9.20;97181.00;;;;4977133;28;20211;-66
2024/03/22 03:55:27;;;;;;;222.97;90.57;;;7.30;99.90;9.00;97193.00;;;;4977771;28;20230;-69
2024/03/22 03:58:17;;;;;;;235.40;97.40;;;7.20;99.90;9.50;97194.00;;;;4978122;28;20210;-69
2024/03/22 04:01:06;;;;;;;228.63;95.13;;;7.30;99.90;9.30;97190.00;;;;4975405;28;20231;-66
2024/03/22 04:03:54;;;;;;;227.50;95.37;;;7.30;99.90;8.90;97186.00;;;;4979838;28;20199;-69
2024/03/22 04:06:44;;;;;;;225.70;93.70;;;7.30;99.90;8.90;97196.00;;;;4989879;28;20206;-65
2024/03/22 04:09:33;;;;;;;218.50;88.27;;;7.20;99.90;9.30;97191.00;;;;4989562;28;20206;-66
2024/03/22 04:12:20;;;;;;;233.93;97.67;;;7.20;99.90;9.80;97203.00;;;;4976106;28;20702;-67
2024/03/22 04:15:10;;;;;;;221.43;92.43;;;7.20;99.90;9.50;97199.00;;;;4974331;28;20604;-66
2024/03/22 04:17:57;;;;;;;212.63;89.27;;;7.20;99.90;8.70;97185.00;;;;4979240;28;20221;-68
2024/03/22 04:20:54;;;;;;;227.20;93.17;;;7.10;99.90;9.10;97188.00;;;;4989937;28;20223;-67
2024/03/22 04:23:43;;;;;;;221.87;93.53;;;7.00;99.90;8.70;97177.00;;;;4991033;28;20213;-66
2024/03/22 04:26:30;;;;;;;217.30;90.87;;;7.00;99.90;9.50;97191.00;;;;4987984;28;20575;-67
2024/03/22 04:29:17;;;;;;;239.37;97.67;;;7.00;99.90;9.70;97199.00;;;;4975169;28;20210;-68
2024/03/22 04:32:05;;;;;;;227.40;93.43;;;7.10;99.90;9.40;97183.00;;;;4975942;28;20229;-67
2024/03/22 04:34:54;;;;;;;220.83;90.90;;;7.10;99.90;9.90;97193.00;;;;4977303;28;20207;-67
2024/03/22 04:37:42;;;;;;;228.80;95.17;;;7.20;99.90;8.90;97189.00;;;;4976888;28;20202;-66
2024/03/22 04:40:32;;;;;;;225.40;93.00;;;7.20;99.90;8.80;97199.00;;;;4994777;28;20717;-67
2024/03/22 04:43:20;;;;;;;234.20;95.93;;;7.20;99.90;8.60;97200.00;;;;4977174;28;20202;-68
2024/03/22 04:46:08;;;;;;;233.83;97.53;;;7.10;99.90;8.70;97190.00;;;;4977683;28;20244;-67
2024/03/22 04:48:55;;;;;;;225.37;93.63;;;7.00;99.90;8.50;97194.00;;;;4978579;28;20264;-67
2024/03/22 04:51:42;;;;;;;218.33;90.13;;;6.90;99.90;8.60;97193.00;;;;4982249;28;20734;-68
2024/03/22 04:54:29;;;;;;;223.73;90.53;;;6.90;99.90;8.50;97183.00;;;;4976887;28;20579;-68
2024/03/22 04:57:18;;;;;;;216.50;89.93;;;6.80;99.90;9.00;97195.00;;;;4976619;28;20240;-67
2024/03/22 05:00:08;;;;;;;235.03;97.00;;;6.90;99.90;8.60;97199.00;;;;4975075;28;20797;-67
2024/03/22 05:02:56;;;;;;;219.37;88.20;;;6.90;99.90;8.50;97199.00;;;;5003592;23;20234;-67
2024/03/22 05:05:43;;;;;;;217.33;86.83;;;6.90;99.90;8.60;97197.00;;;;4975857;28;20200;-65
2024/03/22 05:08:31;;;;;;;219.17;90.83;;;6.80;99.90;9.00;97198.00;;;;4978536;28;20199;-65
2024/03/22 05:11:18;;;;;;;241.63;101.13;;;6.90;99.90;9.30;97210.00;;;;4984316;28;20579;-65
2024/03/22 05:14:07;;;;;;;227.10;92.10;;;7.00;99.90;8.90;97208.00;;;;5008173;28;20210;-66
2024/03/22 05:16:54;;;;;;;223.33;90.93;;;6.90;99.90;8.40;97197.00;;;;5010358;28;20198;-66
2024/03/22 05:19:42;;;;;;;216.70;88.90;;;6.90;99.90;8.60;97196.00;;;;4995875;28;20206;-66
2024/03/22 05:22:29;;;;;;;223.67;91.13;;;8.00;99.90;8.50;97190.00;;;;4993697;28;20324;-65
2024/03/22 05:25:17;;;;;;;233.83;96.17;;;6.90;99.90;8.70;97188.00;;;;5005487;28;20217;-65
2024/03/22 05:28:05;;;;;;;220.10;90.43;;;6.90;99.90;9.50;97192.00;;;;5002788;28;20247;-65
2024/03/22 05:30:53;;;;;;;227.67;93.30;;;6.90;99.90;8.70;97187.00;;;;4998076;28;20210;-64
2024/03/22 05:33:41;;;;;;;231.40;93.50;;;7.00;99.90;8.60;97200.00;;;;5003692;28;20248;-65
2024/03/22 05:36:28;;;;;;;217.20;87.50;;;6.80;99.90;8.70;97198.00;;;;4987895;28;20195;-65
2024/03/22 05:39:16;;;;;;;228.03;94.67;;;6.80;99.90;8.60;97190.00;;;;4991027;28;20206;-63
2024/03/22 05:42:04;;;;;;;232.90;93.90;;;6.70;99.90;8.90;97189.00;;;;4994426;28;20233;-64
2024/03/22 05:44:52;;;;;;;231.87;94.63;;;6.70;99.90;9.00;97195.00;;;;5003045;28;20682;-66
2024/03/22 05:47:41;;;;;;;216.73;86.37;;;6.80;99.90;8.70;97187.00;;;;4994220;28;20230;-64
2024/03/22 05:50:28;;;;;;;225.53;89.37;;;6.80;99.90;8.80;97195.00;;;;4995853;28;20586;-63
2024/03/22 05:53:16;;;;;;;220.10;88.83;;;6.80;99.90;8.50;97178.00;;;;5002814;28;20596;-64
2024/03/22 05:56:05;;;;;;;227.83;92.17;;;6.80;99.90;8.50;97170.00;;;;4996628;28;20214;-64
2024/03/22 05:58:52;;;;;;;237.90;96.83;;;6.80;99.90;8.50;97167.00;;;;5006766;28;20234;-64
2024/03/22 06:01:39;;;;;;;228.17;93.73;;;6.90;99.90;8.10;97170.00;;;;4993843;28;20239;-64
2024/03/22 06:04:28;;;;;;;221.63;91.07;;;6.80;99.90;8.20;97180.00;;;;4990952;28;20207;-67
2024/03/22 06:07:17;;;;;;;238.30;95.73;;;7.70;99.90;8.40;97171.00;;;;4990705;28;20237;-63
2024/03/22 06:10:06;;;;;;;222.30;89.13;;;6.80;99.90;8.80;97177.00;;;;5000492;28;20235;-64
2024/03/22 06:12:53;;;;;;;232.33;93.30;;;6.90;99.90;8.60;97176.00;;;;4996050;28;20233;-64
2024/03/22 06:15:45;;;;;;;224.37;91.73;;;7.00;99.90;8.80;97179.00;;;;4988008;28;20202;-64
2024/03/22 06:18:32;;;;;;;230.03;94.33;;;7.10;99.90;9.00;97189.00;;;;4996935;28;20214;-67
2024/03/22 06:21:22;;;;;;;248.00;102.20;;;7.10;99.90;9.50;97184.00;;;;4994812;28;20226;-64
2024/03/22 06:24:08;;;;;;;223.77;88.10;;;7.20;99.90;9.90;97184.00;;;;5001821;28;20212;-65
2024/03/22 06:26:56;;;;;;;241.77;98.83;;;7.40;99.90;9.40;97177.00;;;;4992946;28;20218;-67
2024/03/22 06:29:43;;;;;;;255.13;105.00;;;7.50;99.90;9.30;97176.00;;;;4990883;28;20198;-65
2024/03/22 06:32:31;;;;;;;239.80;94.63;;;7.40;99.90;9.50;97170.00;;;;4991088;28;20228;-64
2024/03/22 06:35:18;;;;;;;243.53;99.90;;;7.50;99.90;9.80;97169.00;;;;5005294;28;20206;-66
2024/03/22 06:38:07;;;;;;;243.50;98.30;;;7.50;99.90;9.70;97167.00;;;;5003318;28;20204;-65
2024/03/22 06:40:54;;;;;;;244.80;97.50;;;7.60;99.90;9.60;97171.00;;;;4986230;28;20259;-66
2024/03/22 06:43:42;;;;;;;244.23;94.77;;;7.60;99.90;9.60;97158.00;;;;4999413;28;20207;-66
2024/03/22 06:46:29;;;;;;;247.53;96.77;;;7.70;99.90;9.50;97159.00;;;;5004155;28;20229;-63
2024/03/22 06:49:17;;;;;;;249.40;99.87;;;7.70;99.90;10.10;97165.00;;;;4990551;28;20205;-65
2024/03/22 06:52:04;;;;;;;250.03;100.37;;;7.80;99.90;10.30;97156.00;;;;4991353;28;20234;-65
2024/03/22 06:54:53;;;;;;;248.70;98.53;;;7.90;99.90;10.50;97153.00;;;;4995554;28;20622;-66
2024/03/22 06:57:40;;;;;;;248.30;99.63;;;8.80;99.90;10.30;97160.00;;;;4990485;28;20210;-66
2024/03/22 07:00:28;;;;;;;251.17;96.17;;;8.20;99.90;10.70;97157.00;;;;4993671;28;20213;-64
2024/03/22 07:03:15;;;;;;;266.37;107.13;;;8.30;99.90;11.20;97167.00;;;;4999764;28;20209;-64
2024/03/22 07:06:05;;;;;;;261.53;103.10;;;8.50;99.90;11.80;97169.00;;;;5003351;28;20224;-65
2024/03/22 07:08:52;;;;;;;270.67;106.13;;;8.70;99.90;11.90;97167.00;;;;5007638;28;20213;-65
2024/03/22 07:11:42;;;;;;;277.30;108.07;;;8.30;99.90;12.00;97169.00;;;;4999698;28;20225;-66
2024/03/22 07:14:29;;;;;;;275.23;106.90;;;9.10;99.90;11.80;97165.00;;;;5012028;28;20201;-66
2024/03/22 07:17:16;;;;;;;282.93;111.67;;;9.30;99.90;12.30;97163.00;;;;5010453;28;20208;-65
2024/03/22 07:20:06;;;;;;;277.07;109.03;;;9.40;99.90;12.30;97153.00;;;;4992890;28;20218;-65
2024/03/22 07:22:54;;;;;;;282.70;112.67;;;9.50;99.90;12.60;97158.00;;;;5000474;28;20230;-66
2024/03/22 07:25:42;;;;;;;283.00;112.53;;;9.70;99.90;12.50;97153.00;;;;4992403;28;20221;-66
2024/03/22 07:28:31;;;;;;;286.50;114.53;;;9.80;99.90;12.80;97168.00;;;;4995220;28;20203;-66
2024/03/22 07:31:19;;;;;;;303.17;125.20;;;10.00;99.90;13.20;97171.00;;;;5014638;28;20286;-66
2024/03/22 07:34:06;;;;;;;297.13;120.13;;;10.20;99.90;13.30;97167.00;;;;4997109;28;20205;-66
2024/03/22 07:36:54;;;;;;;303.13;126.40;;;10.30;99.90;12.90;97154.00;;;;4999262;28;20205;-66
2024/03/22 07:39:41;;;;;;;301.87;124.13;;;10.40;99.90;12.90;97156.00;;;;4995908;28;20255;-67
2024/03/22 07:42:29;;;;;;;295.00;122.20;;;10.50;99.90;13.30;97157.00;;;;5009317;28;20226;-66
2024/03/22 07:45:17;;;;;;;306.53;125.53;;;10.60;99.90;14.00;97154.00;;;;5003580;28;20212;-65
2024/03/22 07:48:06;;;;;;;297.97;122.87;;;10.90;99.90;13.90;97155.00;;;;5008055;28;20292;-64
2024/03/22 07:50:57;;;;;;;314.77;125.23;;;11.10;99.90;14.50;97155.00;;;;5013939;28;20214;-66
2024/03/22 07:53:44;;;;;;;320.27;130.30;;;11.40;99.90;15.10;97159.00;;;;5000110;28;20206;-66
2024/03/22 07:56:32;;;;;;;319.27;130.23;;;11.70;99.90;15.20;97149.00;;;;5011069;28;20260;-66
2024/03/22 07:59:20;;;;;;;331.43;141.40;;;12.00;99.90;15.70;97146.00;;;;4992441;28;20205;-66
2024/03/22 08:02:10;;;;;;;342.60;143.10;;;12.30;99.90;15.30;97151.00;;;;5003941;28;20744;-65
2024/03/22 08:04:57;;;;;;;339.27;140.20;;;12.50;99.90;15.50;97147.00;;;;5011745;28;20209;-68
2024/03/22 08:07:44;;;;;;;342.30;145.63;;;12.80;99.90;16.60;97143.00;;;;5008880;28;20222;-67
2024/03/22 08:10:31;;;;;;;351.60;148.10;;;13.10;99.90;17.00;97146.00;;;;5003231;28;20214;-66
2024/03/22 08:13:19;;;;;;;354.27;157.70;;;13.50;99.90;17.50;97154.00;;;;5000919;28;20259;-66
2024/03/22 08:16:06;;;;;;;314.80;169.93;;;13.80;99.90;17.60;97161.00;;;;5010164;28;20205;-66
2024/03/22 08:18:56;;;;;;;294.07;171.47;;;14.10;99.90;17.80;97153.00;;;;5002502;28;20202;-66
2024/03/22 08:21:42;;;;;;;294.23;172.20;;;14.30;99.90;17.70;97153.00;;;;5011987;28;20222;-65
2024/03/22 08:24:30;;;;;;;329.03;172.43;;;14.40;99.90;17.30;97144.00;;;;4998635;28;20740;-66
2024/03/22 08:27:17;;;;;;;337.20;183.00;;;14.50;98.70;17.70;97147.00;;;;5007504;28;20614;-66
2024/03/22 08:30:07;;;;;;;323.53;178.63;;;14.60;98.20;16.90;97142.00;;;;5001111;28;20212;-67
2024/03/22 08:32:54;;;;;;;331.63;182.87;;;14.60;97.20;17.30;97144.00;;;;4998880;28;20218;-67
2024/03/22 08:35:43;;;;;;;340.57;184.20;;;14.60;96.90;17.80;97141.00;;;;4996487;28;20687;-66
2024/03/22 08:38:30;;;;;;;321.50;183.57;;;14.70;95.90;18.10;97147.00;;;;4996815;28;20199;-66
2024/03/22 08:41:18;;;;;;;356.33;198.30;;;14.90;95.50;18.60;97136.00;;;;5008930;28;20992;-66
2024/03/22 08:44:05;;;;;;;340.87;189.40;;;15.20;95.00;19.00;97135.00;;;;4998734;28;20975;-64
2024/03/22 08:46:53;;;;;;;345.30;198.27;;;15.40;94.80;19.10;97134.00;;;;5009145;28;20337;-66
2024/03/22 08:49:41;;;;;;;354.90;202.10;;;15.60;94.50;19.30;97126.00;;;;4992402;28;20213;-65
2024/03/22 08:52:32;;;;;;;372.83;199.47;;;15.80;93.70;19.30;97134.00;;;;4994484;28;20225;-66
2024/03/22 08:55:19;;;;;;;382.10;201.90;;;15.90;93.10;19.60;97124.00;;;;5003863;28;20202;-66
2024/03/22 08:58:06;;;;;;;382.47;208.47;;;16.10;92.90;19.70;97120.00;;;;5013069;28;20216;-66
2024/03/22 09:00:53;;;;;;;386.27;209.37;;;16.20;91.80;19.90;97107.00;;;;4997879;28;20194;-66
2024/03/22 09:03:45;;;;;;;385.50;214.10;;;16.40;91.50;20.20;97112.00;;;;5001620;28;20209;-66
2024/03/22 09:06:31;;;;;;;386.33;221.10;;;16.50;91.10;20.10;97116.00;;;;4990536;28;20651;-66
2024/03/22 09:09:21;;;;;;;392.57;228.57;;;16.70;89.10;20.00;97109.00;;;;4999339;28;20209;-66
2024/03/22 09:12:08;;;;;;;387.00;225.67;;;16.70;88.50;20.50;97108.00;;;;4994413;28;20237;-66
2024/03/22 09:14:56;;;;;;;385.63;228.30;;;16.90;86.80;20.60;97112.00;;;;4995391;28;20591;-67
2024/03/22 09:17:43;;;;;;;390.67;232.93;;;17.00;83.90;20.70;97105.00;;;;4998216;28;20596;-66
2024/03/22 09:20:31;;;;;;;388.17;239.70;;;17.20;84.20;21.10;97097.00;;;;4998011;28;20600;-66
2024/03/22 09:23:18;;;;;;;394.03;243.17;;;17.40;85.80;21.30;97094.00;;;;4994815;28;20202;-66
2024/03/22 09:26:08;;;;;;;393.07;247.07;;;17.60;85.10;21.40;97098.00;;;;5006485;28;20210;-66
2024/03/22 09:28:55;;;;;;;395.33;254.77;;;17.80;84.20;21.40;97091.00;;;;4997462;28;20216;-66
2024/03/22 09:31:42;;;;;;;391.03;253.93;;;17.90;83.00;20.90;97084.00;;;;4998170;28;20283;-66
2024/03/22 09:34:29;;;;;;;385.83;254.90;;;17.90;80.00;21.50;97089.00;;;;4993725;28;20209;-66
2024/03/22 09:37:17;;;;;;;397.90;261.03;;;18.00;79.60;20.10;97080.00;;;;5008028;28;20212;-66
2024/03/22 09:40:07;;;;;;;389.07;258.33;;;17.90;69.60;20.20;97080.00;;;;5016359;28;20662;-66
2024/03/22 09:43:03;;;;;;;391.73;252.87;;;17.90;73.10;20.80;97085.00;;;;4992912;28;20228;-67
2024/03/22 09:45:51;;;;;;;395.70;258.27;;;17.90;76.00;21.90;97084.00;;;;5013332;28;20216;-66
2024/03/22 09:48:39;;;;;;;389.37;253.87;;;18.10;77.80;22.40;97076.00;;;;5004877;28;20260;-66
2024/03/22 09:51:28;;;;;;;395.43;266.30;;;18.40;79.00;22.20;97082.00;;;;4998217;28;20382;-66
2024/03/22 09:54:14;;;;;;;396.63;272.47;;;18.60;75.70;22.20;97081.00;;;;4993327;28;20616;-66
2024/03/22 09:57:02;;;;;;;394.20;278.33;;;18.70;72.80;22.50;97065.00;;;;4997084;28;20205;-66
2024/03/22 09:59:51;;;;;;;396.63;280.17;;;18.90;72.80;21.40;97071.00;;;;4998436;28;20619;-67
2024/03/22 10:02:40;;;;;;;395.03;281.33;;;19.00;70.10;23.00;97071.00;;;;4989070;28;20319;-66
2024/03/22 10:05:26;;;;;;;397.23;288.17;;;19.20;72.50;23.20;97070.00;;;;4993110;28;20210;-66
2024/03/22 10:08:14;;;;;;;405.97;300.90;;;19.40;70.70;21.70;97053.00;;;;5001687;28;20239;-66
2024/03/22 10:11:04;;;;;;;398.53;291.13;;;19.30;68.30;22.80;97051.00;;;;5000733;28;20205;-65
2024/03/22 10:13:51;;;;;;;404.90;298.47;;;19.50;66.70;22.40;97036.00;;;;4998850;28;20206;-67
2024/03/22 10:16:40;;;;;;;399.90;299.03;;;19.50;59.20;23.00;97045.00;;;;4994099;28;20206;-65
2024/03/22 10:19:28;;;;;;;398.83;296.37;;;19.60;60.90;23.40;97047.00;;;;5003021;28;20194;-66
2024/03/22 10:22:16;;;;;;;407.17;309.53;;;19.80;60.10;22.90;97036.00;;;;4995066;28;20226;-66
2024/03/22 10:25:06;;;;;;;404.27;308.13;;;19.80;58.00;23.70;97037.00;;;;5011484;28;20217;-65
2024/03/22 10:27:55;;;;;;;406.57;314.30;;;20.00;58.90;23.10;97036.00;;;;4993077;28;20222;-66
2024/03/22 10:30:44;;;;;;;408.53;320.07;;;20.10;56.70;23.20;97033.00;;;;4993084;28;20252;-66
2024/03/22 10:33:33;;;;;;;401.23;314.07;;;20.20;57.20;22.30;97014.00;;;;4995750;28;20249;-67
2024/03/22 10:36:21;;;;;;;412.60;322.37;;;20.00;55.10;22.20;97007.00;;;;5003850;28;20224;-67
2024/03/22 10:39:10;;;;;;;407.20;317.50;;;19.90;54.30;23.30;97017.00;;;;5007291;28;20201;-67
2024/03/22 10:41:58;;;;;;;403.13;309.57;;;20.00;56.30;24.00;97007.00;;;;4996497;28;20236;-66
2024/03/22 10:44:46;;;;;;;424.83;326.80;;;20.40;55.90;23.00;97004.00;;;;4990204;28;20206;-65
2024/03/22 10:47:35;;;;;;;402.10;320.73;;;20.50;52.50;23.30;96993.00;;;;5002377;28;20236;-65
2024/03/22 10:50:24;;;;;;;422.73;340.97;;;20.40;54.10;24.00;97006.00;;;;5003607;28;20271;-66
2024/03/22 10:53:16;;;;;;;417.63;341.97;;;21.20;54.40;23.30;96992.00;;;;4998047;28;20729;-68
2024/03/22 10:56:08;;;;;;;415.17;341.60;;;20.80;52.30;22.40;96997.00;;;;4998994;28;20217;-66
2024/03/22 10:58:55;;;;;;;417.57;349.20;;;20.60;52.00;23.90;96999.00;;;;5001351;28;20230;-67
2024/03/22 11:01:47;;;;;;;415.90;345.47;;;20.70;54.30;21.40;96988.00;;;;5016885;23;20247;-67
2024/03/22 11:04:34;;;;;;;408.50;333.20;;;20.30;53.10;21.90;97010.00;;;;4993908;28;20210;-67
2024/03/22 11:07:25;;;;;;;414.63;336.10;;;20.00;53.20;22.20;96984.00;;;;4997072;28;20236;-68
2024/03/22 11:10:12;;;;;;;418.57;334.83;;;20.10;52.70;22.50;96965.00;;;;4990209;28;20197;-68
2024/03/22 11:13:02;;;;;;;404.63;323.03;;;19.90;54.50;24.50;96958.00;;;;4999296;28;20231;-67
2024/03/22 11:15:49;;;;;;;410.77;336.77;;;20.30;56.40;25.60;96955.00;;;;5001714;28;20213;-67
2024/03/22 11:18:37;;;;;;;416.67;361.53;;;20.90;57.00;25.60;96968.00;;;;5002207;28;20199;-68
2024/03/22 11:21:24;;;;;;;433.83;385.70;;;21.60;54.80;26.30;96980.00;;;;5004126;28;20226;-68
2024/03/22 11:24:13;;;;;;;451.57;403.83;;;22.10;55.10;24.80;96970.00;;;;4994089;28;20217;-68
2024/03/22 11:27:00;;;;;;;458.63;410.63;;;22.30;52.30;24.90;96953.00;;;;4992756;28;20280;-67
2024/03/22 11:29:51;;;;;;;462.33;414.40;;;22.10;52.30;25.40;96957.00;;;;4997084;28;20253;-67
2024/03/22 11:32:43;;;;;;;462.40;415.13;;;22.20;54.10;25.10;96953.00;;;;4994117;28;20234;-68
2024/03/22 11:35:31;;;;;;;464.33;416.90;;;22.20;53.40;26.10;96947.00;;;;5000975;28;20209;-68
2024/03/22 11:38:18;;;;;;;480.87;431.87;;;22.40;54.10;26.70;96947.00;;;;4997859;28;20710;-67
2024/03/22 11:41:08;;;;;;;483.50;435.40;;;22.60;54.70;26.70;96940.00;;;;5009774;28;20220;-68
2024/03/22 11:43:57;;;;;;;495.30;446.43;;;22.90;76.60;27.10;96930.00;;;;4999714;28;20288;-68
2024/03/22 11:46:45;;;;;;;509.20;459.97;;;23.40;76.80;26.40;96926.00;;;;4995704;28;20582;-67
2024/03/22 11:49:32;;;;;;;517.13;468.30;;;23.60;73.50;26.40;96923.00;;;;5000380;28;20206;-67
2024/03/22 11:52:25;;;;;;;523.93;473.90;;;23.50;72.50;25.30;96888.00;;;;4997707;28;20610;-67
2024/03/22 11:55:12;;;;;;;516.33;466.67;;;23.40;74.60;26.90;96909.00;;;;4998222;28;20207;-68
2024/03/22 11:58:01;;;;;;;526.57;477.47;;;23.80;74.80;26.20;96914.00;;;;4993052;28;20611;-67
2024/03/22 12:00:48;;;;;;;535.77;486.17;;;23.70;75.20;26.30;96913.00;;;;4993522;28;20216;-69
2024/03/22 12:03:36;;;;;;;524.73;475.90;;;23.80;75.80;24.80;96914.00;;;;5001818;28;20592;-68